Time;durP1;ratioP1;P1;durP2;ratioP2;P2;SDS_P1;SDS_P2;PMS_P1;PMS_P2;Temp;Humidity;BMP_temperature;BMP_pressure;BME280_temperature;BME280_humidity;BME280_pressure;Samples;Min_cycle;Max_cycle;Signal;HPM_P1;HPM_P2
2024/04/04 00:02:20;;;;;;;3.70;3.03;;;;;;;;;;4975524;28;20539;-81
2024/04/04 00:04:46;;;;;;;6.27;4.80;;;;;;;;;;4994589;28;20416;-84
2024/04/04 00:07:12;;;;;;;6.30;4.07;;;;;;;;;;4993977;28;20461;-81
2024/04/04 00:09:38;;;;;;;6.60;4.70;;;;;;;;;;4994779;28;20645;-80
2024/04/04 00:12:04;;;;;;;5.40;3.90;;;;;;;;;;4994158;28;20183;-80
2024/04/04 00:14:30;;;;;;;6.10;4.00;;;;;;;;;;4994287;28;20589;-81
2024/04/04 00:16:56;;;;;;;4.63;3.83;;;;;;;;;;4992801;28;20431;-81
2024/04/04 00:19:22;;;;;;;6.13;5.40;;;;;;;;;;4994313;28;20467;-81
2024/04/04 00:21:47;;;;;;;5.50;4.40;;;;;;;;;;4992583;28;20559;-80
2024/04/04 00:24:13;;;;;;;5.93;5.33;;;;;;;;;;4994210;28;20185;-82
2024/04/04 00:26:39;;;;;;;7.00;4.70;;;;;;;;;;4994159;28;20781;-80
2024/04/04 00:29:05;;;;;;;7.53;6.60;;;;;;;;;;4992937;28;20185;-80
2024/04/04 00:31:31;;;;;;;7.70;6.00;;;;;;;;;;4994135;28;20443;-81
2024/04/04 00:33:58;;;;;;;7.27;5.57;;;;;;;;;;4994025;28;20178;-82
2024/04/04 00:36:23;;;;;;;6.23;3.83;;;;;;;;;;4993587;28;20416;-81
2024/04/04 00:38:49;;;;;;;7.40;5.37;;;;;;;;;;4993875;28;20916;-81
2024/04/04 00:41:15;;;;;;;7.57;4.90;;;;;;;;;;4993814;28;20404;-82
2024/04/04 00:43:41;;;;;;;7.43;5.00;;;;;;;;;;4993890;28;20177;-81
2024/04/04 00:46:07;;;;;;;5.63;4.70;;;;;;;;;;4993589;28;20249;-85
2024/04/04 00:48:33;;;;;;;7.37;6.10;;;;;;;;;;4993914;28;20419;-81
2024/04/04 00:50:59;;;;;;;8.70;5.27;;;;;;;;;;4993598;28;20410;-80
2024/04/04 00:53:26;;;;;;;6.60;4.60;;;;;;;;;;4993809;28;20417;-82
2024/04/04 00:55:53;;;;;;;6.57;5.40;;;;;;;;;;4993876;28;20452;-80
2024/04/04 00:58:19;;;;;;;6.97;5.13;;;;;;;;;;4993727;28;20423;-81
2024/04/04 01:00:46;;;;;;;6.53;5.90;;;;;;;;;;4993690;28;20419;-81
2024/04/04 01:03:11;;;;;;;7.07;6.23;;;;;;;;;;4993511;28;20482;-80
2024/04/04 01:05:37;;;;;;;8.40;5.23;;;;;;;;;;4996496;28;20405;-80
2024/04/04 01:08:04;;;;;;;9.63;7.10;;;;;;;;;;5000312;28;20470;-81
2024/04/04 01:10:30;;;;;;;7.80;5.77;;;;;;;;;;5000189;28;20477;-80
2024/04/04 01:12:56;;;;;;;6.60;5.67;;;;;;;;;;5000161;28;20904;-81
2024/04/04 01:15:22;;;;;;;9.80;6.10;;;;;;;;;;5000217;28;20417;-80
2024/04/04 01:17:48;;;;;;;9.77;6.43;;;;;;;;;;4999048;28;20183;-81
2024/04/04 01:20:14;;;;;;;7.87;6.27;;;;;;;;;;4998217;28;20245;-85
2024/04/04 01:22:40;;;;;;;10.07;6.67;;;;;;;;;;5000262;28;20235;-84
2024/04/04 01:25:07;;;;;;;7.50;6.63;;;;;;;;;;5000214;28;20411;-81
2024/04/04 01:27:33;;;;;;;9.70;6.90;;;;;;;;;;5000456;28;20172;-89
2024/04/04 01:29:59;;;;;;;10.40;7.07;;;;;;;;;;5000688;28;20423;-90
2024/04/04 01:32:25;;;;;;;10.70;7.70;;;;;;;;;;5000709;28;20527;-88
2024/04/04 01:34:51;;;;;;;8.63;6.83;;;;;;;;;;5000670;28;20921;-86
2024/04/04 01:37:16;;;;;;;8.53;6.73;;;;;;;;;;5000328;28;20449;-90
2024/04/04 01:39:42;;;;;;;8.53;7.03;;;;;;;;;;5000313;28;20507;-80
2024/04/04 01:42:08;;;;;;;7.70;6.60;;;;;;;;;;4999997;28;20896;-79
2024/04/04 01:44:34;;;;;;;7.23;6.53;;;;;;;;;;4998704;28;20177;-79
2024/04/04 01:47:00;;;;;;;8.93;5.87;;;;;;;;;;4998672;28;20466;-82
2024/04/04 01:49:26;;;;;;;10.63;6.90;;;;;;;;;;5000601;28;20189;-89
2024/04/04 01:51:52;;;;;;;11.27;7.10;;;;;;;;;;5000058;28;20416;-84
2024/04/04 01:54:18;;;;;;;8.67;7.03;;;;;;;;;;5000282;28;20428;-81
2024/04/04 01:56:44;;;;;;;8.60;6.20;;;;;;;;;;5000472;28;20449;-84
2024/04/04 01:59:10;;;;;;;7.73;6.93;;;;;;;;;;5000407;28;20631;-80
2024/04/04 02:01:36;;;;;;;11.00;7.57;;;;;;;;;;5000117;28;20964;-84
2024/04/04 02:04:03;;;;;;;9.73;6.37;;;;;;;;;;4999005;28;20427;-87
2024/04/04 02:06:29;;;;;;;7.30;6.30;;;;;;;;;;4999921;28;20408;-86
2024/04/04 02:08:54;;;;;;;10.97;6.90;;;;;;;;;;5000152;28;20443;-88
2024/04/04 02:11:20;;;;;;;10.63;7.20;;;;;;;;;;4999855;28;20945;-84
2024/04/04 02:13:46;;;;;;;13.13;7.60;;;;;;;;;;4999967;28;20276;-84
2024/04/04 02:16:12;;;;;;;8.97;6.47;;;;;;;;;;4998153;28;20544;-79
2024/04/04 02:18:38;;;;;;;10.17;6.60;;;;;;;;;;4996183;28;20432;-79
2024/04/04 02:21:04;;;;;;;10.30;7.00;;;;;;;;;;4996545;28;20418;-89
2024/04/04 02:23:31;;;;;;;10.10;6.97;;;;;;;;;;4996859;28;20213;-83
2024/04/04 02:25:57;;;;;;;9.10;6.27;;;;;;;;;;4996765;28;20447;-80
2024/04/04 02:28:23;;;;;;;11.60;7.50;;;;;;;;;;4996576;28;20427;-85
2024/04/04 02:30:49;;;;;;;8.97;5.33;;;;;;;;;;4996413;28;20425;-81
2024/04/04 02:33:15;;;;;;;7.40;6.20;;;;;;;;;;4995333;28;20416;-85
2024/04/04 02:35:51;;;;;;;8.60;6.43;;;;;;;;;;4996191;28;20419;-81
2024/04/04 02:38:17;;;;;;;9.00;6.63;;;;;;;;;;4996355;28;20266;-82
2024/04/04 02:40:43;;;;;;;8.73;6.97;;;;;;;;;;4996188;28;20971;-88
2024/04/04 02:43:09;;;;;;;6.77;6.10;;;;;;;;;;4996004;28;20563;-81
2024/04/04 02:45:36;;;;;;;9.00;6.63;;;;;;;;;;4995856;28;20459;-81
2024/04/04 02:48:01;;;;;;;7.33;5.97;;;;;;;;;;4996134;28;20421;-85
2024/04/04 02:50:28;;;;;;;10.23;6.30;;;;;;;;;;4995602;28;20775;-80
2024/04/04 02:52:53;;;;;;;12.30;6.60;;;;;;;;;;4995988;28;20466;-80
2024/04/04 02:55:19;;;;;;;8.40;7.00;;;;;;;;;;4997913;28;20420;-81
2024/04/04 02:57:45;;;;;;;10.73;7.13;;;;;;;;;;4995825;28;20443;-83
2024/04/04 03:00:11;;;;;;;14.83;7.83;;;;;;;;;;4995792;28;20840;-81
2024/04/04 03:02:38;;;;;;;17.77;7.33;;;;;;;;;;4995634;28;20832;-83
2024/04/04 03:05:04;;;;;;;8.77;5.50;;;;;;;;;;4995410;28;20403;-84
2024/04/04 03:07:30;;;;;;;6.93;5.57;;;;;;;;;;4995702;28;20423;-80
2024/04/04 03:09:56;;;;;;;12.00;7.00;;;;;;;;;;4995623;28;20408;-83
2024/04/04 03:12:22;;;;;;;7.40;6.67;;;;;;;;;;4995642;28;20415;-80
2024/04/04 03:14:48;;;;;;;8.83;5.60;;;;;;;;;;4995532;28;20411;-81
2024/04/04 03:17:14;;;;;;;13.47;6.23;;;;;;;;;;4995625;28;20413;-79
2024/04/04 03:19:40;;;;;;;11.23;6.70;;;;;;;;;;4995295;28;20920;-80
2024/04/04 03:22:06;;;;;;;8.47;5.57;;;;;;;;;;4995278;28;20476;-81
2024/04/04 03:24:33;;;;;;;6.80;4.80;;;;;;;;;;4995442;28;20415;-81
2024/04/04 03:26:59;;;;;;;7.60;5.93;;;;;;;;;;4995377;28;20424;-80
2024/04/04 03:29:25;;;;;;;7.30;5.80;;;;;;;;;;4995335;28;20816;-81
2024/04/04 03:31:51;;;;;;;7.70;5.07;;;;;;;;;;4995311;28;20404;-79
2024/04/04 03:34:17;;;;;;;9.17;5.03;;;;;;;;;;4995262;28;20495;-84
2024/04/04 03:36:43;;;;;;;9.00;4.03;;;;;;;;;;4994974;28;20169;-83
2024/04/04 03:39:09;;;;;;;11.93;5.70;;;;;;;;;;4995126;28;20924;-79
2024/04/04 03:41:36;;;;;;;12.20;5.83;;;;;;;;;;4995298;28;20469;-85
2024/04/04 03:44:02;;;;;;;9.27;4.33;;;;;;;;;;4995072;28;20490;-86
2024/04/04 03:46:28;;;;;;;9.60;4.37;;;;;;;;;;4993535;28;20555;-79
2024/04/04 03:48:53;;;;;;;7.23;3.73;;;;;;;;;;4994966;28;20187;-79
2024/04/04 03:51:19;;;;;;;6.57;3.17;;;;;;;;;;4994680;28;20411;-79
2024/04/04 03:53:46;;;;;;;8.30;4.40;;;;;;;;;;4994821;28;20419;-80
2024/04/04 03:56:12;;;;;;;7.90;4.53;;;;;;;;;;4994891;28;20268;-81
2024/04/04 03:58:37;;;;;;;8.70;3.50;;;;;;;;;;4994981;28;20483;-89
2024/04/04 04:01:03;;;;;;;5.70;3.40;;;;;;;;;;4995797;28;20413;-81
2024/04/04 04:03:29;;;;;;;4.03;3.00;;;;;;;;;;4995696;28;20216;-89
2024/04/04 04:05:55;;;;;;;4.70;3.50;;;;;;;;;;4993634;28;20923;-84
2024/04/04 04:08:21;;;;;;;7.60;3.57;;;;;;;;;;4995044;28;20423;-79
2024/04/04 04:10:47;;;;;;;3.60;3.13;;;;;;;;;;4994914;28;20412;-87
2024/04/04 04:13:13;;;;;;;7.80;3.63;;;;;;;;;;4994844;28;20413;-89
2024/04/04 04:15:39;;;;;;;6.80;3.10;;;;;;;;;;4993929;28;20181;-83
2024/04/04 04:18:05;;;;;;;8.00;3.20;;;;;;;;;;4995455;28;20423;-83
2024/04/04 04:23:16;;;;;;;7.17;3.33;;;;;;;;;;4994462;28;20517;-86
2024/04/04 04:25:41;;;;;;;4.33;3.17;;;;;;;;;;4993035;28;20778;-80
2024/04/04 04:28:07;;;;;;;4.97;2.50;;;;;;;;;;4993428;28;20186;-78
2024/04/04 04:30:33;;;;;;;9.70;2.57;;;;;;;;;;4994498;28;20478;-79
2024/04/04 04:33:01;;;;;;;6.73;2.63;;;;;;;;;;4994284;28;20419;-78
2024/04/04 04:35:27;;;;;;;5.60;3.17;;;;;;;;;;4993881;28;20411;-79
2024/04/04 04:37:53;;;;;;;6.87;2.90;;;;;;;;;;4994323;28;20451;-78
2024/04/04 04:40:19;;;;;;;9.27;2.50;;;;;;;;;;4993653;28;20411;-79
2024/04/04 04:42:45;;;;;;;5.90;2.17;;;;;;;;;;4994106;28;20572;-79
2024/04/04 04:45:11;;;;;;;6.13;3.80;;;;;;;;;;4993810;28;20447;-84
2024/04/04 04:47:36;;;;;;;5.93;1.60;;;;;;;;;;4993963;28;20904;-80
2024/04/04 04:50:03;;;;;;;6.30;2.60;;;;;;;;;;4993548;28;20414;-79
2024/04/04 04:52:28;;;;;;;6.03;2.20;;;;;;;;;;4993840;28;20218;-79
2024/04/04 04:54:55;;;;;;;7.80;3.57;;;;;;;;;;4993744;28;20399;-80
2024/04/04 04:57:20;;;;;;;5.07;2.03;;;;;;;;;;4993601;28;20428;-80
2024/04/04 04:59:46;;;;;;;5.57;2.00;;;;;;;;;;4993658;28;20426;-81
2024/04/04 05:02:16;;;;;;;5.77;2.17;;;;;;;;;;4993956;28;20535;-81
2024/04/04 05:04:42;;;;;;;8.10;2.13;;;;;;;;;;4993174;28;21010;-80
2024/04/04 05:07:08;;;;;;;5.90;2.03;;;;;;;;;;4993605;28;20415;-80
2024/04/04 05:09:34;;;;;;;4.23;1.40;;;;;;;;;;4992386;28;20407;-81
2024/04/04 05:12:00;;;;;;;5.60;1.70;;;;;;;;;;4993649;28;20900;-81
2024/04/04 05:14:25;;;;;;;9.83;2.13;;;;;;;;;;4993668;28;20466;-80
2024/04/04 05:16:52;;;;;;;8.20;1.43;;;;;;;;;;4993555;28;20457;-80
2024/04/04 05:19:17;;;;;;;5.00;2.13;;;;;;;;;;4993417;28;20407;-81
2024/04/04 05:21:43;;;;;;;6.13;2.03;;;;;;;;;;4992954;28;20470;-81
2024/04/04 05:24:09;;;;;;;7.07;1.40;;;;;;;;;;4993372;28;20463;-81
2024/04/04 05:26:35;;;;;;;2.70;0.97;;;;;;;;;;4993375;28;20399;-80
2024/04/04 05:29:01;;;;;;;6.77;1.70;;;;;;;;;;4993473;28;20918;-80
2024/04/04 05:31:27;;;;;;;5.40;2.37;;;;;;;;;;4993465;28;20419;-82
2024/04/04 05:33:53;;;;;;;9.90;2.00;;;;;;;;;;4993496;28;20411;-80
2024/04/04 05:36:19;;;;;;;5.40;1.70;;;;;;;;;;4993133;28;20892;-79
2024/04/04 05:38:45;;;;;;;5.67;1.43;;;;;;;;;;4993532;28;20412;-81
2024/04/04 05:41:10;;;;;;;4.13;0.90;;;;;;;;;;4993495;28;20439;-79
2024/04/04 05:43:37;;;;;;;9.20;2.40;;;;;;;;;;4993478;28;20211;-82
2024/04/04 05:46:03;;;;;;;7.90;1.70;;;;;;;;;;4993182;28;20475;-84
2024/04/04 05:48:29;;;;;;;3.30;1.50;;;;;;;;;;4993514;28;20415;-80
2024/04/04 05:51:04;;;;;;;3.13;1.37;;;;;;;;;;4992900;28;20473;-81
2024/04/04 05:53:30;;;;;;;5.60;2.57;;;;;;;;;;4996175;28;20415;-82
2024/04/04 05:55:56;;;;;;;10.43;2.00;;;;;;;;;;4996890;28;20407;-79
2024/04/04 05:58:22;;;;;;;7.27;1.53;;;;;;;;;;4995155;28;20482;-80
2024/04/04 06:00:48;;;;;;;3.70;1.20;;;;;;;;;;4996272;28;20897;-80
2024/04/04 06:03:14;;;;;;;1.97;0.67;;;;;;;;;;4996242;28;20472;-80
2024/04/04 06:05:41;;;;;;;5.97;1.23;;;;;;;;;;4995901;28;20412;-82
2024/04/04 06:08:08;;;;;;;2.80;1.30;;;;;;;;;;4996330;28;20429;-83
2024/04/04 06:10:35;;;;;;;4.50;1.03;;;;;;;;;;4995288;28;20789;-83
2024/04/04 06:13:01;;;;;;;6.03;0.43;;;;;;;;;;4996316;28;20819;-82
2024/04/04 06:15:27;;;;;;;4.00;0.47;;;;;;;;;;4996207;28;20515;-83
2024/04/04 06:17:53;;;;;;;2.80;1.00;;;;;;;;;;4996261;28;20453;-81
2024/04/04 06:20:19;;;;;;;6.47;1.30;;;;;;;;;;4996542;28;20412;-84
2024/04/04 06:22:45;;;;;;;3.27;0.50;;;;;;;;;;4996552;28;20901;-79
2024/04/04 06:25:11;;;;;;;3.53;0.57;;;;;;;;;;4996489;28;20465;-83
2024/04/04 06:27:37;;;;;;;4.23;1.03;;;;;;;;;;4996620;28;20468;-83
2024/04/04 06:30:03;;;;;;;2.60;0.57;;;;;;;;;;4995606;28;20452;-79
2024/04/04 06:32:29;;;;;;;4.97;0.73;;;;;;;;;;4995044;28;20419;-80
2024/04/04 06:34:55;;;;;;;2.27;0.73;;;;;;;;;;4995804;28;20405;-80
2024/04/04 06:37:21;;;;;;;5.80;0.70;;;;;;;;;;4996081;28;20476;-80
2024/04/04 06:39:47;;;;;;;4.10;0.33;;;;;;;;;;4996327;28;21049;-79
2024/04/04 06:42:13;;;;;;;2.50;0.20;;;;;;;;;;4996143;28;20215;-84
2024/04/04 06:44:40;;;;;;;6.03;0.70;;;;;;;;;;4996148;28;20176;-82
2024/04/04 06:47:06;;;;;;;3.80;0.57;;;;;;;;;;4994794;28;20458;-85
2024/04/04 06:49:32;;;;;;;2.57;0.50;;;;;;;;;;4995858;28;20502;-82
2024/04/04 06:51:58;;;;;;;2.93;0.60;;;;;;;;;;4996103;28;20661;-80
2024/04/04 06:54:24;;;;;;;2.67;0.90;;;;;;;;;;4996046;28;20185;-82
2024/04/04 06:56:50;;;;;;;2.83;0.77;;;;;;;;;;4994800;28;20179;-81
2024/04/04 06:59:16;;;;;;;3.33;0.37;;;;;;;;;;4994778;28;20979;-80
2024/04/04 07:01:44;;;;;;;3.67;0.37;;;;;;;;;;4995681;28;20207;-79
2024/04/04 07:04:10;;;;;;;11.53;0.60;;;;;;;;;;4994947;28;20423;-79
2024/04/04 07:06:36;;;;;;;2.60;0.40;;;;;;;;;;4995634;28;20407;-79
2024/04/04 07:09:02;;;;;;;1.73;0.37;;;;;;;;;;4994410;28;20521;-80
2024/04/04 07:11:28;;;;;;;5.10;0.63;;;;;;;;;;4995562;28;20191;-79
2024/04/04 07:13:54;;;;;;;4.23;0.50;;;;;;;;;;4995361;28;20438;-80
2024/04/04 07:16:20;;;;;;;2.73;0.40;;;;;;;;;;4995462;28;20415;-80
2024/04/04 07:18:46;;;;;;;3.87;0.30;;;;;;;;;;4995345;28;20481;-79
2024/04/04 07:21:12;;;;;;;4.97;0.63;;;;;;;;;;4995052;28;20917;-80
2024/04/04 07:23:37;;;;;;;2.30;0.37;;;;;;;;;;4995161;28;20991;-79
2024/04/04 07:26:03;;;;;;;4.50;0.73;;;;;;;;;;4995212;28;20174;-80
2024/04/04 07:28:29;;;;;;;5.63;0.43;;;;;;;;;;4995232;28;20428;-79
2024/04/04 07:30:55;;;;;;;3.23;0.80;;;;;;;;;;4995133;28;20491;-79
2024/04/04 07:33:21;;;;;;;1.37;0.93;;;;;;;;;;4995104;28;20257;-79
2024/04/04 07:35:47;;;;;;;2.43;0.57;;;;;;;;;;4994815;28;20426;-80
2024/04/04 07:38:13;;;;;;;1.83;0.50;;;;;;;;;;4995069;28;20910;-80
2024/04/04 07:40:40;;;;;;;3.00;0.70;;;;;;;;;;4995112;28;20426;-80
2024/04/04 07:43:06;;;;;;;5.40;0.53;;;;;;;;;;4994846;28;20610;-80
2024/04/04 07:45:36;;;;;;;3.30;0.50;;;;;;;;;;4994738;28;20447;-80
2024/04/04 07:48:02;;;;;;;2.60;0.53;;;;;;;;;;4993615;28;20534;-80
2024/04/04 07:50:28;;;;;;;2.80;0.40;;;;;;;;;;4994458;28;20494;-80
2024/04/04 07:52:54;;;;;;;3.63;1.03;;;;;;;;;;4994784;28;20573;-80
2024/04/04 07:55:20;;;;;;;5.43;0.47;;;;;;;;;;4994669;28;20914;-79
2024/04/04 07:57:46;;;;;;;3.80;0.63;;;;;;;;;;4994778;28;20306;-84
2024/04/04 08:00:15;;;;;;;3.60;0.67;;;;;;;;;;4994661;28;20423;-79
2024/04/04 08:02:41;;;;;;;3.53;0.47;;;;;;;;;;4994470;28;20494;-81
2024/04/04 08:05:08;;;;;;;3.83;0.70;;;;;;;;;;4993002;28;20425;-80
2024/04/04 08:07:36;;;;;;;1.80;0.40;;;;;;;;;;4994458;28;20441;-80
2024/04/04 08:10:06;;;;;;;3.70;0.50;;;;;;;;;;4994433;28;20419;-80
2024/04/04 08:12:35;;;;;;;3.00;0.30;;;;;;;;;;4993316;28;20441;-79
2024/04/04 08:15:00;;;;;;;2.67;0.40;;;;;;;;;;4993608;28;20430;-79
2024/04/04 08:17:26;;;;;;;3.37;0.43;;;;;;;;;;4994486;28;20425;-79
2024/04/04 08:19:54;;;;;;;4.13;0.60;;;;;;;;;;4994020;28;20433;-82
2024/04/04 08:22:20;;;;;;;2.00;0.67;;;;;;;;;;4993025;28;20818;-79
2024/04/04 08:24:46;;;;;;;5.83;0.67;;;;;;;;;;4992997;28;20422;-82
2024/04/04 08:27:12;;;;;;;4.53;0.63;;;;;;;;;;4994234;28;20429;-81
2024/04/04 08:29:38;;;;;;;5.10;0.50;;;;;;;;;;4993007;28;20409;-81
2024/04/04 08:32:05;;;;;;;5.17;0.33;;;;;;;;;;4994152;28;20425;-79
2024/04/04 08:34:32;;;;;;;4.77;0.70;;;;;;;;;;4993659;28;20447;-80
2024/04/04 08:36:58;;;;;;;4.30;0.80;;;;;;;;;;4993940;28;20758;-79
2024/04/04 08:39:24;;;;;;;6.20;1.30;;;;;;;;;;4994004;28;20814;-80
2024/04/04 08:41:50;;;;;;;3.00;0.50;;;;;;;;;;4992633;28;20531;-80
2024/04/04 08:44:17;;;;;;;2.87;0.93;;;;;;;;;;4993962;28;20475;-80
2024/04/04 08:46:44;;;;;;;2.10;0.30;;;;;;;;;;4993716;28;20224;-80
2024/04/04 08:49:12;;;;;;;2.87;0.50;;;;;;;;;;4993439;28;20433;-78
2024/04/04 08:51:38;;;;;;;3.97;1.07;;;;;;;;;;4993933;28;20753;-81
2024/04/04 08:54:04;;;;;;;4.90;1.13;;;;;;;;;;4993782;28;20507;-79
2024/04/04 08:56:30;;;;;;;2.63;0.77;;;;;;;;;;4993728;28;20946;-80
2024/04/04 08:58:56;;;;;;;9.23;0.90;;;;;;;;;;4993684;28;20432;-80
2024/04/04 09:01:22;;;;;;;3.40;0.40;;;;;;;;;;4993619;28;20413;-80
2024/04/04 09:03:48;;;;;;;4.50;0.60;;;;;;;;;;4993307;28;20850;-79
2024/04/04 09:06:18;;;;;;;2.57;0.90;;;;;;;;;;4992520;28;20413;-78
2024/04/04 09:08:45;;;;;;;4.43;1.13;;;;;;;;;;4993735;28;20197;-79
2024/04/04 09:11:11;;;;;;;2.83;1.33;;;;;;;;;;4993657;28;20797;-79
2024/04/04 09:13:37;;;;;;;2.97;0.50;;;;;;;;;;4993619;28;20418;-79
2024/04/04 09:16:04;;;;;;;2.50;0.80;;;;;;;;;;4992326;28;20948;-79
2024/04/04 09:18:30;;;;;;;4.73;0.60;;;;;;;;;;4993524;28;20949;-79
2024/04/04 09:20:59;;;;;;;4.43;0.90;;;;;;;;;;4993194;28;20755;-78
2024/04/04 09:23:26;;;;;;;3.77;0.43;;;;;;;;;;4993569;28;20669;-78
2024/04/04 09:25:52;;;;;;;4.40;0.77;;;;;;;;;;4993771;28;20413;-79
2024/04/04 09:28:19;;;;;;;6.67;0.97;;;;;;;;;;4997574;28;20418;-85
2024/04/04 09:30:48;;;;;;;37.13;22.37;;;;;;;;;;4997399;28;20283;-79
2024/04/04 09:33:15;;;;;;;11.00;8.93;;;;;;;;;;4997439;28;20444;-79
2024/04/04 09:35:41;;;;;;;3.93;1.20;;;;;;;;;;4997049;28;20420;-79
2024/04/04 09:38:09;;;;;;;12.00;6.00;;;;;;;;;;4997388;28;20417;-78
2024/04/04 09:40:36;;;;;;;9.37;7.40;;;;;;;;;;4997227;28;20447;-80
2024/04/04 09:43:03;;;;;;;5.27;1.40;;;;;;;;;;4997230;28;20476;-79
2024/04/04 09:45:29;;;;;;;6.43;5.10;;;;;;;;;;4997062;28;20447;-79
2024/04/04 09:47:55;;;;;;;3.73;1.10;;;;;;;;;;4997382;28;20428;-89
2024/04/04 09:50:21;;;;;;;7.93;2.70;;;;;;;;;;4997767;28;20181;-89
2024/04/04 09:52:48;;;;;;;3.13;2.93;;;;;;;;;;4997418;28;20205;-79
2024/04/04 09:55:16;;;;;;;7.47;3.10;;;;;;;;;;4977530;28;20504;-93
2024/04/04 09:57:43;;;;;;;2.90;1.07;;;;;;;;;;4977532;28;20588;-82
2024/04/04 10:00:15;;;;;;;9.10;2.10;;;;;;;;;;4977583;28;20416;-79
2024/04/04 10:02:46;;;;;;;2.87;0.60;;;;;;;;;;4977697;28;20997;-81
2024/04/04 10:05:15;;;;;;;3.47;1.47;;;;;;;;;;4977101;28;20425;-80
2024/04/04 10:07:41;;;;;;;3.10;0.43;;;;;;;;;;4992854;28;20476;-84
2024/04/04 10:10:34;;;;;;;3.00;0.70;;;;;;;;;;4993232;28;20439;-87
2024/04/04 10:13:04;;;;;;;3.57;0.90;;;;;;;;;;4977630;28;20442;-83
2024/04/04 10:15:40;;;;;;;2.00;0.70;;;;;;;;;;4978080;28;20818;-86
2024/04/04 10:18:10;;;;;;;8.80;1.20;;;;;;;;;;4978851;28;20512;-87
2024/04/04 10:20:37;;;;;;;3.77;1.10;;;;;;;;;;4978401;28;20398;-91
2024/04/04 10:23:05;;;;;;;5.30;0.50;;;;;;;;;;4978447;28;20518;-84
2024/04/04 10:25:31;;;;;;;4.63;1.00;;;;;;;;;;4978014;28;20413;-87
2024/04/04 10:28:04;;;;;;;3.07;0.30;;;;;;;;;;4977700;28;20417;-84
2024/04/04 10:30:41;;;;;;;7.10;2.73;;;;;;;;;;4977309;28;20437;-85
2024/04/04 10:33:08;;;;;;;2.77;0.70;;;;;;;;;;4977520;28;20453;-87
2024/04/04 10:35:34;;;;;;;2.10;0.77;;;;;;;;;;4991983;28;20421;-84
2024/04/04 10:38:07;;;;;;;4.17;0.70;;;;;;;;;;4976314;28;20428;-81
2024/04/04 10:40:33;;;;;;;2.10;0.33;;;;;;;;;;4977193;28;20469;-83
2024/04/04 10:42:59;;;;;;;6.37;0.87;;;;;;;;;;4977479;28;20561;-80
2024/04/04 10:45:25;;;;;;;1.37;0.60;;;;;;;;;;4977349;28;21029;-87
2024/04/04 10:47:55;;;;;;;1.10;0.47;;;;;;;;;;4977606;28;20430;-87
2024/04/04 10:50:21;;;;;;;3.03;0.50;;;;;;;;;;4976698;28;20417;-84
2024/04/04 10:52:47;;;;;;;7.50;1.23;;;;;;;;;;4977420;28;20411;-81
2024/04/04 10:55:13;;;;;;;2.70;0.50;;;;;;;;;;4976787;28;20413;-93
2024/04/04 10:57:39;;;;;;;2.00;0.90;;;;;;;;;;4977845;28;20926;-89
2024/04/04 11:00:13;;;;;;;2.70;0.97;;;;;;;;;;4977243;28;20421;-90
2024/04/04 11:02:43;;;;;;;3.23;0.87;;;;;;;;;;4976595;28;20482;-82
2024/04/04 11:05:10;;;;;;;1.40;0.20;;;;;;;;;;4976354;28;20419;-79
2024/04/04 11:07:38;;;;;;;1.50;0.63;;;;;;;;;;4979487;28;20763;-79
2024/04/04 11:10:05;;;;;;;3.23;0.70;;;;;;;;;;4995273;28;20788;-93
2024/04/04 11:12:31;;;;;;;3.73;0.40;;;;;;;;;;4995830;28;20469;-87
2024/04/04 11:14:59;;;;;;;4.80;0.60;;;;;;;;;;4995613;28;20418;-80
2024/04/04 11:17:26;;;;;;;1.70;0.77;;;;;;;;;;4988603;28;20447;-78
2024/04/04 11:20:23;;;;;;;1.53;0.63;;;;;;;;;;4983917;28;20933;-78
2024/04/04 11:22:49;;;;;;;2.37;0.50;;;;;;;;;;4976135;28;20490;-85
2024/04/04 11:25:15;;;;;;;2.30;1.20;;;;;;;;;;4976020;28;20418;-85
2024/04/04 11:27:41;;;;;;;1.53;0.30;;;;;;;;;;4975852;28;20260;-86
2024/04/04 11:30:08;;;;;;;4.23;0.70;;;;;;;;;;4975743;28;20178;-80
2024/04/04 11:32:34;;;;;;;1.43;0.70;;;;;;;;;;4975813;28;20422;-79
2024/04/04 11:35:00;;;;;;;1.93;0.63;;;;;;;;;;4974035;28;20862;-78
2024/04/04 11:37:26;;;;;;;2.73;0.97;;;;;;;;;;4975598;28;20520;-78
2024/04/04 11:39:53;;;;;;;2.33;0.30;;;;;;;;;;4975514;28;20550;-78
2024/04/04 11:42:19;;;;;;;2.30;0.63;;;;;;;;;;4975411;28;20886;-85
2024/04/04 11:44:45;;;;;;;2.00;0.83;;;;;;;;;;4975871;28;20425;-81
2024/04/04 11:47:15;;;;;;;2.60;0.73;;;;;;;;;;4975307;28;20786;-79
2024/04/04 11:49:41;;;;;;;3.00;1.30;;;;;;;;;;4974938;28;20471;-79
2024/04/04 11:52:07;;;;;;;1.57;0.80;;;;;;;;;;4975358;28;20419;-79
2024/04/04 11:54:33;;;;;;;1.27;0.57;;;;;;;;;;4975281;28;20431;-79
2024/04/04 11:56:59;;;;;;;1.67;0.70;;;;;;;;;;4975360;28;20422;-79
2024/04/04 11:59:25;;;;;;;1.70;0.60;;;;;;;;;;4975387;28;20424;-80
2024/04/04 12:01:52;;;;;;;1.83;0.87;;;;;;;;;;4975183;28;20474;-85
2024/04/04 12:04:18;;;;;;;1.83;0.47;;;;;;;;;;4975092;28;20433;-83
2024/04/04 12:06:44;;;;;;;1.93;0.57;;;;;;;;;;4975501;28;20815;-80
2024/04/04 12:09:10;;;;;;;1.70;0.97;;;;;;;;;;4975190;28;20431;-79
2024/04/04 12:11:40;;;;;;;3.23;0.93;;;;;;;;;;4975269;28;20419;-82
2024/04/04 12:14:06;;;;;;;5.10;0.90;;;;;;;;;;4975030;28;20418;-81
2024/04/04 12:16:32;;;;;;;1.17;1.00;;;;;;;;;;4975289;28;20421;-79
2024/04/04 12:21:43;;;;;;;1.80;0.90;;;;;;;;;;4975008;28;20407;-78
2024/04/04 12:24:09;;;;;;;1.67;0.70;;;;;;;;;;4974949;28;20551;-80
2024/04/04 12:26:35;;;;;;;1.80;0.80;;;;;;;;;;4975120;28;20410;-78
2024/04/04 12:29:01;;;;;;;2.97;1.30;;;;;;;;;;4974858;28;20439;-78
2024/04/04 12:31:28;;;;;;;4.30;1.00;;;;;;;;;;4974757;28;20419;-79
2024/04/04 12:33:54;;;;;;;3.43;1.00;;;;;;;;;;4974511;28;20186;-88
2024/04/04 12:36:20;;;;;;;2.13;0.70;;;;;;;;;;4974890;28;20507;-82
2024/04/04 12:38:46;;;;;;;1.43;0.80;;;;;;;;;;4974788;28;20169;-78
2024/04/04 12:41:12;;;;;;;1.00;0.50;;;;;;;;;;4974925;28;20418;-78
2024/04/04 12:43:38;;;;;;;2.00;0.60;;;;;;;;;;4974640;28;20481;-79
2024/04/04 12:46:04;;;;;;;1.27;0.40;;;;;;;;;;4974701;28;20242;-78
2024/04/04 12:48:31;;;;;;;3.13;1.10;;;;;;;;;;4974399;28;20951;-79
2024/04/04 12:50:57;;;;;;;1.10;0.70;;;;;;;;;;4974846;28;20412;-80
2024/04/04 12:53:24;;;;;;;2.67;0.90;;;;;;;;;;4974380;28;20913;-79
2024/04/04 12:55:50;;;;;;;1.10;0.63;;;;;;;;;;4989351;28;20432;-81
2024/04/04 12:58:16;;;;;;;1.40;1.00;;;;;;;;;;4974414;28;20424;-78
2024/04/04 13:00:43;;;;;;;2.63;0.50;;;;;;;;;;4973854;28;20905;-79
2024/04/04 13:03:08;;;;;;;4.10;1.20;;;;;;;;;;4973787;28;20533;-79
2024/04/04 13:05:35;;;;;;;2.77;0.73;;;;;;;;;;4974406;28;21017;-79
2024/04/04 13:08:01;;;;;;;2.50;0.50;;;;;;;;;;4974242;28;20542;-80
2024/04/04 13:10:27;;;;;;;2.87;0.83;;;;;;;;;;4974273;28;20474;-79
2024/04/04 13:12:52;;;;;;;2.90;1.20;;;;;;;;;;4974249;28;20420;-79
2024/04/04 13:15:18;;;;;;;4.07;1.07;;;;;;;;;;4974240;28;20268;-78
2024/04/04 13:17:44;;;;;;;2.50;0.83;;;;;;;;;;4979286;28;20274;-78
2024/04/04 13:20:10;;;;;;;2.50;0.73;;;;;;;;;;4979493;28;20660;-78
2024/04/04 13:22:37;;;;;;;1.60;1.10;;;;;;;;;;4974219;28;20498;-84
2024/04/04 13:25:03;;;;;;;1.90;0.43;;;;;;;;;;4974337;28;20930;-79
2024/04/04 13:27:29;;;;;;;2.83;0.87;;;;;;;;;;4974367;28;20416;-80
2024/04/04 13:29:55;;;;;;;1.47;0.80;;;;;;;;;;4974328;28;20419;-79
2024/04/04 13:32:22;;;;;;;1.07;0.50;;;;;;;;;;4974193;28;20184;-81
2024/04/04 13:34:48;;;;;;;1.93;0.90;;;;;;;;;;4973838;28;20479;-80
2024/04/04 13:37:14;;;;;;;1.90;0.20;;;;;;;;;;4974296;28;20427;-80
2024/04/04 13:39:40;;;;;;;4.53;0.37;;;;;;;;;;4974437;28;20176;-79
2024/04/04 13:42:06;;;;;;;1.20;0.40;;;;;;;;;;4973981;28;20458;-80
2024/04/04 13:44:33;;;;;;;2.77;0.40;;;;;;;;;;4973927;28;20434;-80
2024/04/04 13:47:01;;;;;;;1.40;0.20;;;;;;;;;;4972443;28;20494;-78
2024/04/04 13:49:27;;;;;;;0.80;0.20;;;;;;;;;;4973401;28;20424;-78
2024/04/04 13:51:54;;;;;;;1.63;0.20;;;;;;;;;;4973864;28;20749;-80
2024/04/04 13:54:20;;;;;;;1.10;0.20;;;;;;;;;;4972700;28;20712;-79
2024/04/04 13:56:46;;;;;;;2.40;0.50;;;;;;;;;;4973824;28;20458;-79
2024/04/04 13:59:12;;;;;;;0.83;0.20;;;;;;;;;;4973777;28;20424;-79
2024/04/04 14:01:38;;;;;;;0.70;0.47;;;;;;;;;;4973795;28;20514;-88
2024/04/04 14:04:04;;;;;;;2.77;0.40;;;;;;;;;;4972288;28;20832;-79
2024/04/04 14:06:30;;;;;;;0.77;0.40;;;;;;;;;;4973783;28;20420;-84
2024/04/04 14:08:56;;;;;;;2.47;0.30;;;;;;;;;;4973615;28;20483;-80
2024/04/04 14:11:22;;;;;;;3.20;0.40;;;;;;;;;;4973697;28;20832;-80
2024/04/04 14:13:49;;;;;;;1.07;0.40;;;;;;;;;;4975246;28;20447;-79
2024/04/04 14:16:15;;;;;;;1.40;0.30;;;;;;;;;;4975801;28;20426;-78
2024/04/04 14:18:41;;;;;;;1.30;0.30;;;;;;;;;;4987347;28;20541;-79
2024/04/04 14:21:07;;;;;;;0.50;0.40;;;;;;;;;;4977045;28;20416;-78
2024/04/04 14:23:33;;;;;;;0.80;0.20;;;;;;;;;;4976925;28;20574;-79
2024/04/04 14:25:58;;;;;;;2.87;0.30;;;;;;;;;;4977001;28;20411;-79
2024/04/04 14:28:24;;;;;;;1.43;0.30;;;;;;;;;;4976882;28;20430;-80
2024/04/04 14:30:50;;;;;;;3.60;0.33;;;;;;;;;;4976805;28;20411;-79
2024/04/04 14:33:17;;;;;;;0.80;0.20;;;;;;;;;;4976765;28;20173;-77
2024/04/04 14:35:42;;;;;;;1.33;0.30;;;;;;;;;;4996074;28;20175;-79
2024/04/04 14:38:08;;;;;;;4.00;0.43;;;;;;;;;;4996155;28;20422;-81
2024/04/04 14:40:35;;;;;;;0.80;0.40;;;;;;;;;;4996269;28;20415;-79
2024/04/04 14:43:01;;;;;;;0.60;0.20;;;;;;;;;;4995850;28;20531;-78
2024/04/04 14:45:27;;;;;;;1.13;0.20;;;;;;;;;;4995930;28;20872;-80